Jonestown, Pennsylvania
Current Conditions -  °F | °C
As of 9:58 AM on Saturday 22 Nov 2014 (Local Time) from KMUI Reporting Station
Clear Clear  
Wind Chill: 27°   Ceiling: Unl
Heat Index: 27°   Visibility: 10mi
Dew Point: 13°   Wind: 3mph
Humidity: 56%   Direction: NA
Pressure: 30.46"   Gusts: NA
Location:  40.41°N, 76.48°W
Report Text: KMUI 221458Z AUTO VRB03KT 10SM CLR M03/M11 A3046 RMK AO2 SLP325 T10291107 58006 $
Loading
Personal Weather Stations






























Interactive Weather Map New forecast layout! Learn more

10-Day Weather Forecast

Advertisements
Track Severe Weather on mobile